sensor_id;sensor_type;location;lat;lon;timestamp;pressure;altitude;pressure_sealevel;temperature;humidity
69187;BME280;56301;56.864;60.554;2022-09-09T00:03:53;98286.25;;;23.38;50.14
69187;BME280;56301;56.864;60.554;2022-09-09T00:08:45;98287.03;;;23.32;50.45
69187;BME280;56301;56.864;60.554;2022-09-09T00:11:12;98280.38;;;23.34;50.51
69187;BME280;56301;56.864;60.554;2022-09-09T00:13:37;98280.03;;;23.37;50.44
69187;BME280;56301;56.864;60.554;2022-09-09T00:21:07;98281.31;;;23.41;50.24
69187;BME280;56301;56.864;60.554;2022-09-09T00:23:30;98286.25;;;23.38;50.63
69187;BME280;56301;56.864;60.554;2022-09-09T00:28:20;98283.75;;;23.36;50.53
69187;BME280;56301;56.864;60.554;2022-09-09T00:30:44;98284.31;;;23.32;50.49
69187;BME280;56301;56.864;60.554;2022-09-09T00:33:12;98280.22;;;23.36;50.27
69187;BME280;56301;56.864;60.554;2022-09-09T00:35:42;98276.28;;;23.38;50.69
69187;BME280;56301;56.864;60.554;2022-09-09T00:38:10;98278.44;;;23.43;50.71
69187;BME280;56301;56.864;60.554;2022-09-09T00:40:35;98276.38;;;23.45;50.94
69187;BME280;56301;56.864;60.554;2022-09-09T00:43:12;98276.75;;;23.42;50.32
69187;BME280;56301;56.864;60.554;2022-09-09T00:45:52;98275.09;;;23.41;50.26
69187;BME280;56301;56.864;60.554;2022-09-09T00:48:18;98269.69;;;23.41;50.67
69187;BME280;56301;56.864;60.554;2022-09-09T00:50:48;98274.25;;;23.40;50.86
69187;BME280;56301;56.864;60.554;2022-09-09T00:58:08;98275.81;;;23.35;50.28
69187;BME280;56301;56.864;60.554;2022-09-09T01:00:32;98281.88;;;23.37;50.60
69187;BME280;56301;56.864;60.554;2022-09-09T01:07:54;98279.66;;;23.40;50.51
69187;BME280;56301;56.864;60.554;2022-09-09T01:10:30;98289.63;;;23.40;50.16
69187;BME280;56301;56.864;60.554;2022-09-09T01:12:58;98286.91;;;23.40;50.58
69187;BME280;56301;56.864;60.554;2022-09-09T01:15:26;98283.94;;;23.35;50.56
69187;BME280;56301;56.864;60.554;2022-09-09T01:17:52;98280.59;;;23.33;50.30
69187;BME280;56301;56.864;60.554;2022-09-09T01:20:18;98284.31;;;23.32;50.33
69187;BME280;56301;56.864;60.554;2022-09-09T01:27:50;98293.81;;;23.42;50.62
69187;BME280;56301;56.864;60.554;2022-09-09T01:30:14;98289.25;;;23.43;50.69
69187;BME280;56301;56.864;60.554;2022-09-09T01:32:40;98288.69;;;23.77;50.23
69187;BME280;56301;56.864;60.554;2022-09-09T01:35:04;98296.31;;;23.59;50.16
69187;BME280;56301;56.864;60.554;2022-09-09T01:37:30;98286.81;;;23.48;50.12
69187;BME280;56301;56.864;60.554;2022-09-09T01:39:52;98293.81;;;23.57;50.07
69187;BME280;56301;56.864;60.554;2022-09-09T01:42:15;98286.72;;;23.71;50.26
69187;BME280;56301;56.864;60.554;2022-09-09T01:44:39;98289.03;;;23.89;50.83
69187;BME280;56301;56.864;60.554;2022-09-09T01:47:02;98292.91;;;24.01;50.05
69187;BME280;56301;56.864;60.554;2022-09-09T01:49:25;98290.34;;;24.14;49.84
69187;BME280;56301;56.864;60.554;2022-09-09T01:51:50;98290.25;;;24.22;49.84
69187;BME280;56301;56.864;60.554;2022-09-09T01:54:14;98291.19;;;24.36;49.21
69187;BME280;56301;56.864;60.554;2022-09-09T01:59:12;98301.84;;;24.38;49.51
69187;BME280;56301;56.864;60.554;2022-09-09T02:02:16;98297.56;;;24.29;48.87
69187;BME280;56301;56.864;60.554;2022-09-09T02:07:52;98300.59;;;23.83;50.09
69187;BME280;56301;56.864;60.554;2022-09-09T02:09:50;98308.25;;;23.64;50.60
69187;BME280;56301;56.864;60.554;2022-09-09T02:12:16;98311.00;;;23.56;50.90
69187;BME280;56301;56.864;60.554;2022-09-09T02:14:50;98309.34;;;23.55;50.99
69187;BME280;56301;56.864;60.554;2022-09-09T02:17:18;98311.00;;;23.56;51.35
69187;BME280;56301;56.864;60.554;2022-09-09T02:20:07;98311.41;;;23.53;51.61
69187;BME280;56301;56.864;60.554;2022-09-09T02:22:41;98306.44;;;23.57;52.18
69187;BME280;56301;56.864;60.554;2022-09-09T02:25:06;98311.59;;;23.51;51.26
69187;BME280;56301;56.864;60.554;2022-09-09T02:27:30;98314.47;;;23.50;51.04
69187;BME280;56301;56.864;60.554;2022-09-09T02:29:53;98303.38;;;23.45;51.39
69187;BME280;56301;56.864;60.554;2022-09-09T02:32:30;98316.06;;;23.44;51.92
69187;BME280;56301;56.864;60.554;2022-09-09T02:34:55;98313.25;;;23.38;51.26
69187;BME280;56301;56.864;60.554;2022-09-09T02:37:19;98319.94;;;23.42;51.48
69187;BME280;56301;56.864;60.554;2022-09-09T02:39:46;98321.28;;;23.46;51.25
69187;BME280;56301;56.864;60.554;2022-09-09T02:42:11;98314.84;;;23.47;51.26
69187;BME280;56301;56.864;60.554;2022-09-09T02:44:34;98311.69;;;23.43;51.76
69187;BME280;56301;56.864;60.554;2022-09-09T02:47:10;98316.25;;;23.43;51.31
69187;BME280;56301;56.864;60.554;2022-09-09T02:52:08;98317.09;;;23.43;51.23
69187;BME280;56301;56.864;60.554;2022-09-09T02:54:35;98319.94;;;23.42;51.25
69187;BME280;56301;56.864;60.554;2022-09-09T02:59:36;98323.78;;;23.33;51.63
69187;BME280;56301;56.864;60.554;2022-09-09T03:01:59;98322.38;;;23.37;51.67
69187;BME280;56301;56.864;60.554;2022-09-09T03:04:23;98314.56;;;23.42;51.25
69187;BME280;56301;56.864;60.554;2022-09-09T03:06:46;98323.13;;;23.45;51.02
69187;BME280;56301;56.864;60.554;2022-09-09T03:09:14;98325.34;;;23.42;51.63
69187;BME280;56301;56.864;60.554;2022-09-09T03:11:37;98325.19;;;23.43;51.35
69187;BME280;56301;56.864;60.554;2022-09-09T03:13:59;98324.34;;;23.43;51.15
69187;BME280;56301;56.864;60.554;2022-09-09T03:16:24;98325.34;;;23.42;51.07
69187;BME280;56301;56.864;60.554;2022-09-09T03:18:48;98326.59;;;23.39;50.87
69187;BME280;56301;56.864;60.554;2022-09-09T03:21:11;98327.78;;;23.37;51.31
69187;BME280;56301;56.864;60.554;2022-09-09T03:23:35;98327.97;;;23.35;51.15
69187;BME280;56301;56.864;60.554;2022-09-09T03:25:59;98331.50;;;23.36;51.24
69187;BME280;56301;56.864;60.554;2022-09-09T03:28:30;98331.97;;;23.39;51.29
69187;BME280;56301;56.864;60.554;2022-09-09T03:30:57;98331.88;;;23.47;51.39
69187;BME280;56301;56.864;60.554;2022-09-09T03:33:20;98330.03;;;23.48;51.84
69187;BME280;56301;56.864;60.554;2022-09-09T03:35:46;98335.25;;;23.64;51.62
69187;BME280;56301;56.864;60.554;2022-09-09T03:38:09;98331.88;;;23.62;50.73
69187;BME280;56301;56.864;60.554;2022-09-09T03:40:32;98334.38;;;23.49;50.79
69187;BME280;56301;56.864;60.554;2022-09-09T03:42:55;98329.09;;;23.41;51.18
69187;BME280;56301;56.864;60.554;2022-09-09T03:45:17;98334.84;;;23.38;50.99
69187;BME280;56301;56.864;60.554;2022-09-09T03:47:40;98340.25;;;23.38;51.13
69187;BME280;56301;56.864;60.554;2022-09-09T03:50:03;98337.00;;;23.42;51.23
69187;BME280;56301;56.864;60.554;2022-09-09T03:52:25;98332.09;;;23.46;51.36
69187;BME280;56301;56.864;60.554;2022-09-09T03:54:49;98339.16;;;23.47;51.08
69187;BME280;56301;56.864;60.554;2022-09-09T03:57:11;98332.09;;;23.46;51.54
69187;BME280;56301;56.864;60.554;2022-09-09T03:59:34;98341.75;;;23.40;51.33
69187;BME280;56301;56.864;60.554;2022-09-09T04:01:56;98336.72;;;23.52;50.92
69187;BME280;56301;56.864;60.554;2022-09-09T04:04:19;98344.19;;;23.50;50.66
69187;BME280;56301;56.864;60.554;2022-09-09T04:06:41;98339.97;;;23.47;51.20
69187;BME280;56301;56.864;60.554;2022-09-09T04:09:03;98339.50;;;23.44;51.33
69187;BME280;56301;56.864;60.554;2022-09-09T04:11:28;98338.13;;;23.48;51.34
69187;BME280;56301;56.864;60.554;2022-09-09T04:13:53;98339.97;;;23.47;50.94
69187;BME280;56301;56.864;60.554;2022-09-09T04:16:16;98340.25;;;23.52;50.91
69187;BME280;56301;56.864;60.554;2022-09-09T04:18:39;98343.41;;;23.56;50.56
69187;BME280;56301;56.864;60.554;2022-09-09T04:21:02;98339.06;;;23.70;50.95
69187;BME280;56301;56.864;60.554;2022-09-09T04:23:27;98341.38;;;23.58;50.73
69187;BME280;56301;56.864;60.554;2022-09-09T04:25:50;98345.19;;;23.49;50.94
69187;BME280;56301;56.864;60.554;2022-09-09T04:28:15;98336.72;;;23.52;50.87
69187;BME280;56301;56.864;60.554;2022-09-09T04:30:38;98344.19;;;23.65;50.62
69187;BME280;56301;56.864;60.554;2022-09-09T04:33:01;98346.41;;;23.61;50.66
69187;BME280;56301;56.864;60.554;2022-09-09T04:35:23;98345.19;;;23.64;51.00
69187;BME280;56301;56.864;60.554;2022-09-09T04:37:46;98348.56;;;23.66;50.67
69187;BME280;56301;56.864;60.554;2022-09-09T04:40:08;98342.31;;;23.65;50.37
69187;BME280;56301;56.864;60.554;2022-09-09T04:42:35;98344.56;;;23.62;50.71
69187;BME280;56301;56.864;60.554;2022-09-09T04:44:58;98350.53;;;23.57;51.17
69187;BME280;56301;56.864;60.554;2022-09-09T04:47:20;98352.19;;;23.58;50.82
69187;BME280;56301;56.864;60.554;2022-09-09T04:49:42;98348.81;;;23.56;50.82
69187;BME280;56301;56.864;60.554;2022-09-09T04:52:05;98353.94;;;23.51;51.07
69187;BME280;56301;56.864;60.554;2022-09-09T04:54:30;98357.75;;;23.42;51.38
69187;BME280;56301;56.864;60.554;2022-09-09T04:56:52;98365.22;;;23.40;51.33
69187;BME280;56301;56.864;60.554;2022-09-09T04:59:14;98365.56;;;23.37;51.24
69187;BME280;56301;56.864;60.554;2022-09-09T05:01:43;98350.56;;;23.34;51.25
69187;BME280;56301;56.864;60.554;2022-09-09T05:04:06;98358.88;;;23.33;51.23
69187;BME280;56301;56.864;60.554;2022-09-09T05:06:30;98355.72;;;23.29;51.35
69187;BME280;56301;56.864;60.554;2022-09-09T05:08:54;98366.13;;;23.32;51.67
69187;BME280;56301;56.864;60.554;2022-09-09T05:13:43;98364.38;;;23.24;51.46
69187;BME280;56301;56.864;60.554;2022-09-09T05:16:06;98364.16;;;23.26;51.49
69187;BME280;56301;56.864;60.554;2022-09-09T05:18:28;98361.13;;;23.44;50.76
69187;BME280;56301;56.864;60.554;2022-09-09T05:20:51;98365.94;;;23.34;51.12
69187;BME280;56301;56.864;60.554;2022-09-09T05:23:13;98364.63;;;23.29;51.27
69187;BME280;56301;56.864;60.554;2022-09-09T05:25:36;98362.13;;;23.28;51.28
69187;BME280;56301;56.864;60.554;2022-09-09T05:27:59;98368.72;;;23.25;51.06
69187;BME280;56301;56.864;60.554;2022-09-09T05:30:21;98370.75;;;23.23;51.09
69187;BME280;56301;56.864;60.554;2022-09-09T05:32:44;98361.66;;;23.24;51.08
69187;BME280;56301;56.864;60.554;2022-09-09T05:35:07;98372.47;;;23.24;51.44
69187;BME280;56301;56.864;60.554;2022-09-09T05:37:30;98369.09;;;23.22;50.95
69187;BME280;56301;56.864;60.554;2022-09-09T05:39:53;98361.19;;;23.21;50.98
69187;BME280;56301;56.864;60.554;2022-09-09T05:42:16;98364.88;;;23.20;51.12
69187;BME280;56301;56.864;60.554;2022-09-09T05:44:38;98358.66;;;23.19;51.07
69187;BME280;56301;56.864;60.554;2022-09-09T05:47:01;98358.03;;;23.17;51.22
69187;BME280;56301;56.864;60.554;2022-09-09T05:49:23;98360.72;;;23.17;51.29
69187;BME280;56301;56.864;60.554;2022-09-09T05:51:46;98359.69;;;23.18;51.39
69187;BME280;56301;56.864;60.554;2022-09-09T05:54:10;98355.31;;;23.17;51.09
69187;BME280;56301;56.864;60.554;2022-09-09T05:56:37;98358.66;;;23.19;51.16
69187;BME280;56301;56.864;60.554;2022-09-09T05:59:02;98358.66;;;23.19;50.96
69187;BME280;56301;56.864;60.554;2022-09-09T06:01:25;98363.06;;;23.20;51.11
69187;BME280;56301;56.864;60.554;2022-09-09T06:03:48;98349.56;;;23.20;51.33
69187;BME280;56301;56.864;60.554;2022-09-09T06:06:12;98367.06;;;23.24;50.73
69187;BME280;56301;56.864;60.554;2022-09-09T06:08:36;98355.41;;;23.24;50.84
69187;BME280;56301;56.864;60.554;2022-09-09T06:11:02;98351.88;;;23.23;50.90
69187;BME280;56301;56.864;60.554;2022-09-09T06:13:25;98358.28;;;23.22;51.21
69187;BME280;56301;56.864;60.554;2022-09-09T06:15:49;98359.50;;;23.20;50.72
69187;BME280;56301;56.864;60.554;2022-09-09T06:18:12;98351.59;;;23.18;50.89
69187;BME280;56301;56.864;60.554;2022-09-09T06:20:34;98359.88;;;23.17;51.18
69187;BME280;56301;56.864;60.554;2022-09-09T06:22:57;98352.63;;;23.17;51.23
69187;BME280;56301;56.864;60.554;2022-09-09T06:25:19;98350.75;;;23.18;50.87
69187;BME280;56301;56.864;60.554;2022-09-09T06:27:41;98353.25;;;23.19;50.83
69187;BME280;56301;56.864;60.554;2022-09-09T06:30:04;98354.97;;;23.20;50.95
69187;BME280;56301;56.864;60.554;2022-09-09T06:32:27;98353.25;;;23.19;50.75
69187;BME280;56301;56.864;60.554;2022-09-09T06:34:50;98354.28;;;23.18;51.11
69187;BME280;56301;56.864;60.554;2022-09-09T06:39:41;98355.78;;;23.21;51.05
69187;BME280;56301;56.864;60.554;2022-09-09T06:42:03;98360.72;;;23.17;51.00
69187;BME280;56301;56.864;60.554;2022-09-09T06:44:42;98354.50;;;23.17;51.14
69187;BME280;56301;56.864;60.554;2022-09-09T06:47:09;98350.91;;;23.16;50.64
69187;BME280;56301;56.864;60.554;2022-09-09T06:49:31;98356.31;;;23.16;51.00
69187;BME280;56301;56.864;60.554;2022-09-09T06:51:54;98351.41;;;23.20;50.78
69187;BME280;56301;56.864;60.554;2022-09-09T06:54:17;98348.16;;;23.24;50.91
69187;BME280;56301;56.864;60.554;2022-09-09T06:56:41;98348.34;;;23.38;50.74
69187;BME280;56301;56.864;60.554;2022-09-09T06:59:09;98346.97;;;23.57;49.94
69187;BME280;56301;56.864;60.554;2022-09-09T07:01:33;98346.06;;;23.64;50.21
69187;BME280;56301;56.864;60.554;2022-09-09T07:03:58;98345.84;;;23.51;50.08
69187;BME280;56301;56.864;60.554;2022-09-09T07:06:23;98356.56;;;23.44;50.10
69187;BME280;56301;56.864;60.554;2022-09-09T07:08:50;98360.19;;;23.37;50.32
69187;BME280;56301;56.864;60.554;2022-09-09T07:11:13;98367.53;;;23.28;50.43
69187;BME280;56301;56.864;60.554;2022-09-09T07:13:37;98367.06;;;23.24;50.79
69187;BME280;56301;56.864;60.554;2022-09-09T07:16:08;98372.16;;;23.19;51.06
69187;BME280;56301;56.864;60.554;2022-09-09T07:18:30;98365.91;;;23.19;50.68
69187;BME280;56301;56.864;60.554;2022-09-09T07:20:53;98367.13;;;23.16;50.81
69187;BME280;56301;56.864;60.554;2022-09-09T07:23:16;98359.03;;;23.16;51.09
69187;BME280;56301;56.864;60.554;2022-09-09T07:25:43;98357.34;;;23.15;51.16
69187;BME280;56301;56.864;60.554;2022-09-09T07:28:06;98356.16;;;23.18;50.89
69187;BME280;56301;56.864;60.554;2022-09-09T07:30:29;98353.72;;;23.23;50.69
69187;BME280;56301;56.864;60.554;2022-09-09T07:32:52;98349.09;;;23.32;50.45
69187;BME280;56301;56.864;60.554;2022-09-09T07:35:14;98345.00;;;23.36;50.43
69187;BME280;56301;56.864;60.554;2022-09-09T07:37:37;98342.59;;;23.41;49.95
69187;BME280;56301;56.864;60.554;2022-09-09T07:40:00;98348.66;;;23.43;50.15
69187;BME280;56301;56.864;60.554;2022-09-09T07:42:22;98348.66;;;23.43;50.20
69187;BME280;56301;56.864;60.554;2022-09-09T07:44:45;98344.91;;;23.44;50.51
69187;BME280;56301;56.864;60.554;2022-09-09T07:47:10;98352.56;;;23.55;49.68
69187;BME280;56301;56.864;60.554;2022-09-09T07:49:40;98345.16;;;23.72;49.56
69187;BME280;56301;56.864;60.554;2022-09-09T07:52:04;98338.88;;;23.86;49.43
69187;BME280;56301;56.864;60.554;2022-09-09T07:54:27;98338.13;;;23.92;49.25
69187;BME280;56301;56.864;60.554;2022-09-09T07:56:50;98337.47;;;24.05;48.64
69187;BME280;56301;56.864;60.554;2022-09-09T07:59:13;98339.41;;;24.11;49.10
69187;BME280;56301;56.864;60.554;2022-09-09T08:01:41;98342.13;;;23.96;49.79
69187;BME280;56301;56.864;60.554;2022-09-09T08:04:06;98337.03;;;23.87;49.26
69187;BME280;56301;56.864;60.554;2022-09-09T08:06:31;98346.06;;;23.79;50.08
69187;BME280;56301;56.864;60.554;2022-09-09T08:08:54;98331.63;;;23.72;49.66
69187;BME280;56301;56.864;60.554;2022-09-09T08:11:18;98336.38;;;23.70;49.71
69187;BME280;56301;56.864;60.554;2022-09-09T08:13:41;98332.00;;;23.69;49.86
69187;BME280;56301;56.864;60.554;2022-09-09T08:16:07;98343.91;;;23.74;50.06
69187;BME280;56301;56.864;60.554;2022-09-09T08:18:31;98342.34;;;23.80;49.79
69187;BME280;56301;56.864;60.554;2022-09-09T08:20:53;98337.88;;;23.72;49.71
69187;BME280;56301;56.864;60.554;2022-09-09T08:23:16;98345.69;;;23.67;49.93
69187;BME280;56301;56.864;60.554;2022-09-09T08:25:38;98341.00;;;23.61;50.33
69187;BME280;56301;56.864;60.554;2022-09-09T08:28:00;98351.53;;;23.56;50.17
69187;BME280;56301;56.864;60.554;2022-09-09T08:30:23;98360.03;;;23.53;50.24
69187;BME280;56301;56.864;60.554;2022-09-09T08:32:45;98365.78;;;23.50;50.48
69187;BME280;56301;56.864;60.554;2022-09-09T08:35:08;98361.59;;;23.47;50.55
69187;BME280;56301;56.864;60.554;2022-09-09T08:37:31;98371.56;;;23.47;50.07
69187;BME280;56301;56.864;60.554;2022-09-09T08:39:53;98357.38;;;23.45;50.46
69187;BME280;56301;56.864;60.554;2022-09-09T08:47:13;98357.75;;;23.42;50.73
69187;BME280;56301;56.864;60.554;2022-09-09T08:52:03;98362.69;;;23.38;50.43
69187;BME280;56301;56.864;60.554;2022-09-09T08:54:30;98356.44;;;23.38;50.34
69187;BME280;56301;56.864;60.554;2022-09-09T08:56:55;98358.50;;;23.36;50.94
69187;BME280;56301;56.864;60.554;2022-09-09T08:59:18;98359.72;;;23.33;50.54
69187;BME280;56301;56.864;60.554;2022-09-09T09:01:47;98364.28;;;23.33;50.69
69187;BME280;56301;56.864;60.554;2022-09-09T09:09:40;98355.94;;;23.72;49.41
69187;BME280;56301;56.864;60.554;2022-09-09T09:12:15;98359.47;;;23.72;49.36
69187;BME280;56301;56.864;60.554;2022-09-09T09:14:39;98356.47;;;23.67;49.68
69187;BME280;56301;56.864;60.554;2022-09-09T09:17:15;98358.88;;;23.62;50.00
69187;BME280;56301;56.864;60.554;2022-09-09T09:19:40;98358.63;;;23.57;49.54
69187;BME280;56301;56.864;60.554;2022-09-09T09:22:14;98365.41;;;23.53;49.94
69187;BME280;56301;56.864;60.554;2022-09-09T09:24:41;98367.47;;;23.51;50.11
69187;BME280;56301;56.864;60.554;2022-09-09T09:27:08;98358.78;;;23.55;49.95
69187;BME280;56301;56.864;60.554;2022-09-09T09:29:34;98365.06;;;23.71;49.45
69187;BME280;56301;56.864;60.554;2022-09-09T09:31:56;98363.69;;;23.75;49.41
69187;BME280;56301;56.864;60.554;2022-09-09T09:34:22;98367.22;;;23.75;49.38
69187;BME280;56301;56.864;60.554;2022-09-09T09:36:56;98363.28;;;23.78;49.89
69187;BME280;56301;56.864;60.554;2022-09-09T09:39:26;98364.69;;;23.89;49.43
69187;BME280;56301;56.864;60.554;2022-09-09T09:41:52;98362.91;;;23.96;48.75
69187;BME280;56301;56.864;60.554;2022-09-09T09:44:28;98357.59;;;23.88;49.19
69187;BME280;56301;56.864;60.554;2022-09-09T09:46:53;98361.34;;;23.87;49.21
69187;BME280;56301;56.864;60.554;2022-09-09T09:49:16;98353.13;;;23.95;48.99
69187;BME280;56301;56.864;60.554;2022-09-09T09:51:39;98358.88;;;24.07;48.63
69187;BME280;56301;56.864;60.554;2022-09-09T09:54:05;98356.09;;;24.00;48.81
69187;BME280;56301;56.864;60.554;2022-09-09T09:56:29;98354.16;;;23.94;49.50
69187;BME280;56301;56.864;60.554;2022-09-09T09:58:52;98354.06;;;23.87;49.63
69187;BME280;56301;56.864;60.554;2022-09-09T10:01:28;98354.53;;;23.91;49.25
69187;BME280;56301;56.864;60.554;2022-09-09T10:03:51;98351.44;;;23.94;49.52
69187;BME280;56301;56.864;60.554;2022-09-09T10:06:14;98353.31;;;23.93;49.60
69187;BME280;56301;56.864;60.554;2022-09-09T10:08:44;98354.63;;;23.97;48.96
69187;BME280;56301;56.864;60.554;2022-09-09T10:16:19;98339.88;;;24.15;48.93
69187;BME280;56301;56.864;60.554;2022-09-09T10:24:17;98346.63;;;24.25;48.68
69187;BME280;56301;56.864;60.554;2022-09-09T10:39:50;98348.91;;;24.07;49.52
69187;BME280;56301;56.864;60.554;2022-09-09T10:42:16;98350.50;;;24.01;49.87
69187;BME280;56301;56.864;60.554;2022-09-09T10:47:36;98355.81;;;23.95;49.97
69187;BME280;56301;56.864;60.554;2022-09-09T10:55:37;98348.28;;;23.90;49.63
69187;BME280;56301;56.864;60.554;2022-09-09T10:58:02;98347.00;;;23.86;49.85
69187;BME280;56301;56.864;60.554;2022-09-09T11:02:48;98341.13;;;23.83;50.09
69187;BME280;56301;56.864;60.554;2022-09-09T11:10:00;98339.84;;;23.78;50.04
69187;BME280;56301;56.864;60.554;2022-09-09T11:12:23;98342.53;;;23.78;49.85
69187;BME280;56301;56.864;60.554;2022-09-09T11:14:50;98344.56;;;23.76;49.85
69187;BME280;56301;56.864;60.554;2022-09-09T11:17:18;98345.78;;;23.74;50.07
69187;BME280;56301;56.864;60.554;2022-09-09T11:19:42;98348.69;;;23.72;50.10
69187;BME280;56301;56.864;60.554;2022-09-09T11:22:48;98348.00;;;23.70;49.93
69187;BME280;56301;56.864;60.554;2022-09-09T11:24:58;98339.06;;;23.70;49.93
69187;BME280;56301;56.864;60.554;2022-09-09T11:27:27;98350.25;;;23.67;50.44
69187;BME280;56301;56.864;60.554;2022-09-09T11:29:56;98345.00;;;23.65;50.13
69187;BME280;56301;56.864;60.554;2022-09-09T11:32:27;98351.44;;;23.64;50.35
69187;BME280;56301;56.864;60.554;2022-09-09T11:35:02;98361.59;;;23.62;50.35
69187;BME280;56301;56.864;60.554;2022-09-09T11:42:22;98359.25;;;23.59;50.19
69187;BME280;56301;56.864;60.554;2022-09-09T11:44:45;98357.75;;;23.57;50.19
69187;BME280;56301;56.864;60.554;2022-09-09T11:49:42;98358.16;;;23.53;50.20
69187;BME280;56301;56.864;60.554;2022-09-09T11:52:12;98361.03;;;23.52;50.16
69187;BME280;56301;56.864;60.554;2022-09-09T11:54:44;98363.72;;;23.52;50.35
69187;BME280;56301;56.864;60.554;2022-09-09T11:57:17;98360.19;;;23.51;50.43
69187;BME280;56301;56.864;60.554;2022-09-09T11:59:50;98359.34;;;23.51;50.41
69187;BME280;56301;56.864;60.554;2022-09-09T12:02:33;98356.66;;;23.51;50.22
69187;BME280;56301;56.864;60.554;2022-09-09T12:07:25;98348.75;;;23.49;50.26
69187;BME280;56301;56.864;60.554;2022-09-09T12:10:05;98341.66;;;23.48;50.19
69187;BME280;56301;56.864;60.554;2022-09-09T12:12:29;98349.13;;;23.46;50.45
69187;BME280;56301;56.864;60.554;2022-09-09T12:17:31;98350.31;;;23.44;50.26
69187;BME280;56301;56.864;60.554;2022-09-09T12:22:55;98343.25;;;23.43;50.09
69187;BME280;56301;56.864;60.554;2022-09-09T12:33:17;98261.69;;;23.33;49.84
69187;BME280;56301;56.864;60.554;2022-09-09T12:35:40;98267.25;;;23.31;49.12
69187;BME280;56301;56.864;60.554;2022-09-09T12:38:04;98348.06;;;23.33;49.01
69187;BME280;56301;56.864;60.554;2022-09-09T12:40:30;98347.72;;;23.36;49.07
69187;BME280;56301;56.864;60.554;2022-09-09T12:42:53;98341.28;;;23.37;49.41
69187;BME280;56301;56.864;60.554;2022-09-09T12:47:40;98341.09;;;23.38;50.10
69187;BME280;56301;56.864;60.554;2022-09-09T12:50:04;98346.47;;;23.38;49.82
69187;BME280;56301;56.864;60.554;2022-09-09T12:52:28;98338.94;;;23.34;49.78
69187;BME280;56301;56.864;60.554;2022-09-09T12:54:51;98343.50;;;23.33;50.01
69187;BME280;56301;56.864;60.554;2022-09-09T12:57:13;98343.88;;;23.30;50.40
69187;BME280;56301;56.864;60.554;2022-09-09T12:59:37;98342.22;;;23.29;50.17
69187;BME280;56301;56.864;60.554;2022-09-09T13:02:00;98345.06;;;23.27;50.12
69187;BME280;56301;56.864;60.554;2022-09-09T13:04:23;98349.84;;;23.25;50.32
69187;BME280;56301;56.864;60.554;2022-09-09T13:06:45;98342.78;;;23.24;50.33
69187;BME280;56301;56.864;60.554;2022-09-09T13:09:08;98341.06;;;23.23;50.75
69187;BME280;56301;56.864;60.554;2022-09-09T13:13:53;98347.50;;;23.22;50.81
69187;BME280;56301;56.864;60.554;2022-09-09T13:16:24;98341.47;;;23.20;50.42
69187;BME280;56301;56.864;60.554;2022-09-09T13:18:47;98343.28;;;23.20;50.72
69187;BME280;56301;56.864;60.554;2022-09-09T13:21:10;98337.06;;;23.19;50.37
69187;BME280;56301;56.864;60.554;2022-09-09T13:23:33;98352.44;;;23.19;50.63
69187;BME280;56301;56.864;60.554;2022-09-09T13:25:59;98348.22;;;23.16;50.61
69187;BME280;56301;56.864;60.554;2022-09-09T13:28:23;98345.53;;;23.16;50.69
69187;BME280;56301;56.864;60.554;2022-09-09T13:30:54;98342.81;;;23.16;50.69
69187;BME280;56301;56.864;60.554;2022-09-09T13:33:20;98340.13;;;23.16;50.89
69187;BME280;56301;56.864;60.554;2022-09-09T13:35:46;98348.22;;;23.16;50.94
69187;BME280;56301;56.864;60.554;2022-09-09T13:38:09;98345.72;;;23.15;50.67
69187;BME280;56301;56.864;60.554;2022-09-09T13:40:32;98348.63;;;23.13;50.98
69187;BME280;56301;56.864;60.554;2022-09-09T13:42:55;98343.22;;;23.13;51.06
69187;BME280;56301;56.864;60.554;2022-09-09T13:45:19;98341.53;;;23.12;50.76
69187;BME280;56301;56.864;60.554;2022-09-09T13:47:41;98346.91;;;23.12;50.89
69187;BME280;56301;56.864;60.554;2022-09-09T13:50:24;98350.66;;;23.11;50.54
69187;BME280;56301;56.864;60.554;2022-09-09T13:52:47;98354.38;;;23.10;50.65
69187;BME280;56301;56.864;60.554;2022-09-09T13:55:09;98352.69;;;23.09;50.88
69187;BME280;56301;56.864;60.554;2022-09-09T13:57:32;98353.72;;;23.08;51.01
69187;BME280;56301;56.864;60.554;2022-09-09T13:59:54;98350.38;;;23.06;50.62
69187;BME280;56301;56.864;60.554;2022-09-09T14:02:17;98347.00;;;23.04;50.67
69187;BME280;56301;56.864;60.554;2022-09-09T14:04:39;98356.78;;;23.05;51.09
69187;BME280;56301;56.864;60.554;2022-09-09T14:07:02;98352.59;;;23.02;51.05
69187;BME280;56301;56.864;60.554;2022-09-09T14:09:25;98353.59;;;23.01;51.01
69187;BME280;56301;56.864;60.554;2022-09-09T14:11:47;98350.91;;;23.01;51.02
69187;BME280;56301;56.864;60.554;2022-09-09T14:14:10;98349.22;;;23.00;51.16
69187;BME280;56301;56.864;60.554;2022-09-09T14:16:33;98357.31;;;23.00;50.91
69187;BME280;56301;56.864;60.554;2022-09-09T14:18:55;98349.41;;;22.99;50.97
69187;BME280;56301;56.864;60.554;2022-09-09T14:21:18;98356.66;;;22.98;51.06
69187;BME280;56301;56.864;60.554;2022-09-09T14:23:40;98360.38;;;22.97;50.71
69187;BME280;56301;56.864;60.554;2022-09-09T14:26:03;98361.56;;;22.95;50.97
69187;BME280;56301;56.864;60.554;2022-09-09T14:28:25;98357.03;;;22.95;50.68
69187;BME280;56301;56.864;60.554;2022-09-09T14:30:48;98365.13;;;22.95;50.97
69187;BME280;56301;56.864;60.554;2022-09-09T14:33:11;98355.34;;;22.94;50.97
69187;BME280;56301;56.864;60.554;2022-09-09T14:35:34;98359.91;;;22.94;51.14
69187;BME280;56301;56.864;60.554;2022-09-09T14:37:56;98358.22;;;22.93;50.65
69187;BME280;56301;56.864;60.554;2022-09-09T14:40:18;98366.34;;;22.93;50.72
69187;BME280;56301;56.864;60.554;2022-09-09T14:42:41;98357.53;;;22.91;51.04